SBPA/POA METAR and TAF weather

Enter ICAO airport designator
Station Type Date Time Source
SBPA METAR 2021/07/30 07:00 UTC NOAA

SBPA 300700Z 00000KT CAVOK 01/01 Q1028


Station Type Date Time Source
SBPA Decoded METAR 2021/07/30 07:00 UTC NOAA

Porto Alegre Aero-Porto , Brazil (SBPA) 30-00S 051-11W 3M
Jul 30, 2021 - 03:00 AM EDT / 2021.07.30 0700 UTC
Wind: Calm:0
Visibility: greater than 7 mile(s):0
Temperature: 33 F (1 C)
Dew Point: 33 F (1 C)
Relative Humidity: 100%
Pressure (altimeter): 30.36 in. Hg (1028 hPa)
ob: SBPA 300700Z 00000KT CAVOK 01/01 Q1028
cycle: 7

Station Type Date Time Source
SBPA TAF 2021/07/30 06:21 UTC NOAA

TAF SBPA 300330Z 3006/3106 28007KT CAVOK TX13/3016Z TN04/3105Z PROB40
TEMPO 3006/3010 0600 FG BKN005
BECMG 3010/3012 15006KT 9999 SCT030
BECMG 3017/3019 CAVOK
BECMG 3102/3104 09005KT 0800 FG BKN006
RMK PEG

Example: see airport list